Time;durP1;ratioP1;P1;durP2;ratioP2;P2;SDS_P1;SDS_P2;PMS_P1;PMS_P2;Temp;Humidity;BMP_temperature;BMP_pressure;BME280_temperature;BME280_humidity;BME280_pressure;Samples;Min_cycle;Max_cycle;Signal;HPM_P1;HPM_P2
2022/08/25 00:02:05;;;;;;;3.90;3.13;;;24.40;63.10;;;25.83;42.68;100658.19;4936445;29;20649;-66
2022/08/25 00:04:36;;;;;;;3.30;3.10;;;24.40;63.40;;;25.86;42.74;100660.47;4933660;29;20708;-66
2022/08/25 00:07:05;;;;;;;5.10;3.70;;;24.40;63.60;;;25.71;43.04;100664.41;4931771;29;20637;-66
2022/08/25 00:09:34;;;;;;;3.67;3.20;;;24.40;63.90;;;25.76;43.28;100672.63;4947938;29;20617;-66
2022/08/25 00:12:04;;;;;;;7.00;3.20;;;24.30;64.60;;;25.70;43.43;100670.78;4947659;29;20860;-67
2022/08/25 00:14:36;;;;;;;3.80;3.50;;;24.30;64.10;;;25.61;43.02;100669.34;4933569;29;20629;-66
2022/08/25 00:17:04;;;;;;;4.13;3.47;;;24.20;64.20;;;25.66;43.55;100670.34;4948442;29;20624;-67
2022/08/25 00:19:34;;;;;;;3.40;3.10;;;24.30;64.60;;;25.61;43.35;100669.34;4947408;28;20637;-67
2022/08/25 00:22:05;;;;;;;4.73;3.33;;;24.20;64.70;;;25.63;43.93;100676.13;4946869;29;20668;-67
2022/08/25 00:24:32;;;;;;;5.20;3.33;;;24.20;64.70;;;25.54;43.98;100671.19;4950559;29;20627;-69
2022/08/25 00:27:00;;;;;;;3.80;3.27;;;24.10;65.00;;;25.47;43.97;100668.50;4952059;28;21069;-66
2022/08/25 00:29:30;;;;;;;10.53;3.90;;;24.10;65.30;;;25.47;44.00;100676.53;4951318;29;21102;-67
2022/08/25 00:31:58;;;;;;;4.10;3.23;;;24.10;65.40;;;25.45;44.49;100667.91;4951006;29;20647;-68
2022/08/25 00:34:32;;;;;;;7.03;4.00;;;24.00;65.80;;;25.42;44.35;100668.34;4950844;29;20616;-67
2022/08/25 00:37:01;;;;;;;6.10;3.80;;;24.00;65.90;;;25.32;44.73;100665.22;4950296;28;20624;-67
2022/08/25 00:39:28;;;;;;;4.07;3.63;;;23.90;66.90;;;25.27;44.52;100671.19;4932896;29;20638;-68
2022/08/25 00:41:56;;;;;;;4.43;3.90;;;23.90;66.40;;;25.23;45.15;100671.78;4951852;28;21308;-67
2022/08/25 00:44:27;;;;;;;4.97;3.97;;;23.90;66.60;;;25.21;44.76;100666.63;4951321;29;20627;-67
2022/08/25 00:46:57;;;;;;;3.80;3.50;;;23.80;66.70;;;25.21;45.04;100665.81;4951980;29;20620;-68
2022/08/25 00:49:47;;;;;;;4.40;4.00;;;23.80;67.10;;;25.20;45.48;100666.84;4952262;29;21014;-67
2022/08/25 00:52:24;;;;;;;4.60;3.90;;;23.80;67.30;;;25.18;45.59;100671.56;4951342;29;20666;-66
2022/08/25 00:55:03;;;;;;;5.50;4.37;;;23.80;67.50;;;25.13;45.83;100664.16;4952259;29;20619;-66
2022/08/25 00:57:43;;;;;;;5.33;4.40;;;23.80;67.80;;;24.99;45.96;100659.00;4939691;29;20637;-67
2022/08/25 01:00:27;;;;;;;3.97;3.67;;;23.70;68.30;;;25.08;46.27;100663.13;4947926;29;20987;-67
2022/08/25 01:02:56;;;;;;;4.50;4.10;;;23.70;68.60;;;25.07;46.15;100664.97;4967346;28;20647;-67
2022/08/25 01:05:24;;;;;;;4.47;4.07;;;23.60;68.80;;;25.02;46.30;100658.63;4965820;28;20805;-68
2022/08/25 01:07:55;;;;;;;4.07;3.73;;;23.60;68.90;;;24.91;46.15;100665.38;4946749;29;20668;-67
2022/08/25 01:10:26;;;;;;;4.23;3.70;;;23.60;69.40;;;24.95;46.27;100661.28;4955044;28;20640;-67
2022/08/25 01:13:02;;;;;;;3.83;3.53;;;23.60;69.50;;;24.94;46.83;100667.63;4951464;29;20650;-68
2022/08/25 01:15:30;;;;;;;4.37;3.70;;;23.50;69.70;;;24.97;46.33;100671.75;4947768;29;20724;-66
2022/08/25 01:17:58;;;;;;;6.60;5.30;;;23.50;70.30;;;24.88;47.49;100667.59;4932279;29;20632;-68
2022/08/25 01:20:29;;;;;;;4.27;3.90;;;23.60;70.70;;;24.96;46.86;100670.09;4932357;29;20641;-66
2022/08/25 01:22:58;;;;;;;5.10;4.60;;;23.60;70.70;;;24.96;47.18;100672.78;4933696;29;20692;-70
2022/08/25 01:26:05;;;;;;;5.20;4.77;;;23.50;71.20;;;24.91;47.42;100672.56;4932733;29;20764;-66
2022/08/25 01:28:33;;;;;;;6.90;5.20;;;23.60;71.70;;;24.85;48.23;100668.84;4935536;29;20640;-67
2022/08/25 01:31:00;;;;;;;9.40;4.87;;;23.50;72.90;;;24.87;48.59;100671.31;4944859;29;20628;-67
2022/08/25 01:33:30;;;;;;;7.30;5.80;;;23.50;73.30;;;24.90;48.81;100678.91;4952345;29;20639;-67
2022/08/25 01:35:57;;;;;;;4.70;4.30;;;23.50;74.30;;;24.88;49.57;100670.28;4952463;29;21180;-68
2022/08/25 01:38:24;;;;;;;5.20;4.20;;;23.50;75.60;;;24.93;49.24;100676.66;4951586;29;20637;-68
2022/08/25 01:40:51;;;;;;;4.20;3.80;;;23.50;75.80;;;24.92;49.56;100672.34;4951967;29;20628;-67
2022/08/25 01:43:35;;;;;;;6.83;4.20;;;23.50;76.50;;;24.87;49.64;100676.66;4949815;28;20659;-67
2022/08/25 01:46:02;;;;;;;5.17;3.93;;;23.50;76.90;;;24.86;50.19;100672.31;4940959;28;20763;-68
2022/08/25 01:48:31;;;;;;;5.00;3.40;;;23.50;77.60;;;24.91;49.46;100672.56;4943923;29;20853;-72
2022/08/25 01:50:58;;;;;;;3.87;3.50;;;23.50;77.30;;;24.78;48.49;100676.00;4953983;28;21181;-67
2022/08/25 01:53:31;;;;;;;4.50;3.43;;;23.40;76.10;;;24.68;48.45;100679.00;4940361;29;20657;-67
2022/08/25 01:56:08;;;;;;;4.90;3.60;;;23.30;75.90;;;24.55;48.86;100678.16;4937362;29;20637;-67
2022/08/25 01:58:40;;;;;;;3.27;3.00;;;23.20;76.10;;;24.41;48.17;100668.44;4947385;28;20647;-67
2022/08/25 02:01:14;;;;;;;3.63;3.27;;;23.10;75.00;;;24.38;47.66;100672.31;4942042;29;20644;-67
2022/08/25 02:03:44;;;;;;;3.70;3.40;;;23.10;74.70;;;24.30;47.54;100674.38;4935472;29;21220;-67
2022/08/25 02:06:18;;;;;;;3.60;3.30;;;23.00;74.40;;;24.16;47.05;100684.13;4935503;29;21079;-66
2022/08/25 02:08:49;;;;;;;5.10;3.40;;;22.90;73.80;;;24.13;47.34;100676.50;4935560;29;20967;-66
2022/08/25 02:11:16;;;;;;;4.23;3.93;;;22.80;74.20;;;24.15;47.75;100679.81;4953128;29;20620;-67
2022/08/25 02:13:43;;;;;;;3.73;3.43;;;22.90;74.30;;;24.33;47.34;100679.28;4949017;29;20767;-67
2022/08/25 02:16:20;;;;;;;4.77;3.50;;;23.00;74.40;;;24.31;47.23;100676.81;4938121;29;21027;-68
2022/08/25 02:18:47;;;;;;;4.23;3.83;;;23.00;73.80;;;24.34;46.61;100668.41;4937784;29;20636;-67
2022/08/25 02:21:14;;;;;;;5.63;3.70;;;23.00;73.60;;;24.38;46.26;100669.66;4951258;29;21001;-68
2022/08/25 02:23:42;;;;;;;3.40;3.10;;;23.10;72.80;;;24.35;46.48;100667.41;4936547;29;20647;-69
2022/08/25 02:26:09;;;;;;;3.80;3.50;;;23.00;72.50;;;24.27;46.26;100672.09;4955135;28;20707;-67
2022/08/25 02:28:36;;;;;;;3.50;3.23;;;23.00;72.80;;;24.20;46.62;100669.38;4937382;29;20874;-67
2022/08/25 02:31:04;;;;;;;4.13;3.73;;;22.90;72.90;;;24.05;46.69;100668.69;4954002;28;20635;-67
2022/08/25 02:33:31;;;;;;;3.93;3.53;;;22.80;73.10;;;24.13;46.80;100673.06;4951385;29;20640;-68
2022/08/25 02:36:00;;;;;;;9.70;4.40;;;22.80;73.40;;;23.98;47.10;100665.13;4950770;29;21188;-68
2022/08/25 02:38:28;;;;;;;4.10;3.70;;;22.70;73.90;;;24.10;46.81;100660.94;4934129;29;21028;-67
2022/08/25 02:40:57;;;;;;;4.50;3.63;;;22.70;73.80;;;24.01;47.80;100671.91;4936313;29;20621;-68
2022/08/25 02:43:26;;;;;;;7.80;3.37;;;22.70;75.00;;;24.08;47.69;100670.97;4925666;29;21149;-66
2022/08/25 02:45:56;;;;;;;3.97;3.67;;;22.70;74.80;;;24.04;48.22;100663.53;4954735;28;20743;-67
2022/08/25 02:48:23;;;;;;;3.60;3.30;;;22.70;75.60;;;23.93;48.23;100662.22;4951959;29;20640;-68
2022/08/25 02:50:51;;;;;;;3.80;3.50;;;22.70;75.50;;;23.95;48.38;100665.53;4953373;29;20620;-67
2022/08/25 02:53:22;;;;;;;3.77;3.47;;;22.70;76.80;;;23.96;48.42;100661.81;4951067;28;20735;-66
2022/08/25 02:55:49;;;;;;;5.80;3.90;;;22.60;76.30;;;23.88;49.40;100659.31;4936322;29;20678;-68
2022/08/25 02:58:16;;;;;;;3.83;3.53;;;22.60;77.20;;;23.88;49.16;100656.66;4940360;29;21200;-67
2022/08/25 03:00:44;;;;;;;6.70;4.17;;;22.60;77.50;;;23.77;49.39;100652.69;4938387;29;20642;-68
2022/08/25 03:03:12;;;;;;;4.50;3.83;;;22.50;78.10;;;23.70;49.48;100651.03;4952748;29;20667;-68
2022/08/25 03:05:39;;;;;;;8.67;3.70;;;22.50;78.20;;;23.75;50.11;100648.56;4968401;28;20663;-67
2022/08/25 03:08:07;;;;;;;4.83;4.33;;;22.50;79.30;;;23.72;50.07;100646.31;4955784;28;20608;-67
2022/08/25 03:10:35;;;;;;;6.93;4.10;;;22.50;79.20;;;23.77;49.80;100659.84;4953635;29;20644;-67
2022/08/25 03:13:01;;;;;;;4.13;3.83;;;22.50;79.20;;;23.79;50.11;100660.47;4955839;28;20643;-67
2022/08/25 03:15:29;;;;;;;4.23;3.60;;;22.50;79.50;;;23.84;49.84;100652.75;4945769;28;21057;-67
2022/08/25 03:17:56;;;;;;;4.63;4.23;;;22.50;79.60;;;23.78;50.17;100658.84;4952635;29;20633;-67
2022/08/25 03:20:26;;;;;;;4.77;4.10;;;22.50;80.00;;;23.76;50.07;100655.56;4954348;28;20636;-68
2022/08/25 03:22:53;;;;;;;4.30;3.90;;;22.50;79.80;;;23.73;49.77;100655.94;4953859;28;20648;-67
2022/08/25 03:28:07;;;;;;;4.70;4.30;;;22.50;80.20;;;23.72;50.41;100656.97;4967476;28;20624;-68
2022/08/25 03:30:34;;;;;;;4.00;3.70;;;22.50;80.50;;;23.73;50.58;100663.94;4940133;29;20641;-67
2022/08/25 03:33:01;;;;;;;5.10;4.20;;;22.50;81.10;;;23.67;51.34;100654.06;4952708;28;20670;-68
2022/08/25 03:35:28;;;;;;;4.30;3.90;;;22.40;82.00;;;23.72;50.99;100659.63;4951633;29;20724;-68
2022/08/25 03:37:57;;;;;;;8.43;4.17;;;22.40;81.80;;;23.70;50.97;100664.34;4954206;29;20625;-68
2022/08/25 03:40:25;;;;;;;5.33;4.33;;;22.40;81.90;;;23.60;50.90;100662.00;4952325;29;20649;-67
2022/08/25 03:42:54;;;;;;;10.20;4.43;;;22.40;81.90;;;23.61;51.34;100661.00;4953845;28;20660;-67
2022/08/25 03:45:22;;;;;;;9.63;4.50;;;22.40;82.50;;;23.57;51.35;100659.75;4951814;28;20653;-67
2022/08/25 03:47:50;;;;;;;5.53;4.17;;;22.40;82.50;;;23.50;51.51;100650.03;4953339;29;20716;-67
2022/08/25 03:50:19;;;;;;;4.00;3.60;;;22.30;82.50;;;23.47;50.96;100656.56;4967324;28;20708;-67
2022/08/25 03:52:52;;;;;;;4.27;3.73;;;22.30;82.40;;;23.40;51.16;100652.22;4935528;29;21259;-68
2022/08/25 03:55:21;;;;;;;4.47;4.07;;;22.20;82.30;;;23.48;50.82;100641.41;4962352;28;20715;-68
2022/08/25 03:57:49;;;;;;;7.00;4.50;;;22.20;82.40;;;23.39;51.47;100639.91;4950690;29;20632;-66
2022/08/25 04:00:17;;;;;;;5.47;4.60;;;22.20;83.30;;;23.25;52.20;100627.47;4944502;28;20633;-68
2022/08/25 04:02:44;;;;;;;6.10;4.00;;;22.10;84.30;;;23.24;52.59;100631.16;4944792;29;20644;-68
2022/08/25 04:05:11;;;;;;;5.67;4.30;;;22.00;85.00;;;23.25;53.20;100630.97;4952484;29;21028;-67
2022/08/25 04:07:41;;;;;;;5.53;4.90;;;22.00;85.70;;;23.33;53.05;100640.69;4938531;28;20680;-68
2022/08/25 04:10:09;;;;;;;4.90;4.40;;;22.00;86.20;;;23.38;53.08;100638.28;4934702;29;20629;-68
2022/08/25 04:12:37;;;;;;;5.27;4.10;;;22.10;86.30;;;23.41;53.07;100640.53;4933530;29;20680;-67
2022/08/25 04:15:07;;;;;;;4.53;4.13;;;22.20;86.10;;;23.27;52.94;100647.56;4948377;28;20736;-67
2022/08/25 04:17:38;;;;;;;4.47;3.90;;;22.10;85.90;;;23.24;52.87;100637.31;4933730;29;20615;-67
2022/08/25 04:20:08;;;;;;;5.07;4.57;;;22.10;85.80;;;23.14;53.30;100648.28;4957183;28;20632;-66
2022/08/25 04:22:37;;;;;;;4.80;4.50;;;22.00;86.30;;;23.34;52.86;100645.00;4952749;28;20637;-67
2022/08/25 04:25:06;;;;;;;7.80;3.97;;;22.00;86.40;;;23.15;53.44;100651.75;4951192;28;21215;-67
2022/08/25 04:27:33;;;;;;;6.27;4.00;;;22.00;86.70;;;23.24;53.35;100652.44;4950981;29;20672;-67
2022/08/25 04:30:00;;;;;;;12.70;3.83;;;22.00;87.10;;;23.15;53.36;100654.41;4966623;28;20732;-69
2022/08/25 04:32:27;;;;;;;4.57;4.10;;;22.00;87.30;;;23.10;53.63;100649.69;4951203;29;20644;-67
2022/08/25 04:34:54;;;;;;;4.23;3.83;;;22.00;87.60;;;23.09;53.80;100669.31;4955462;28;20648;-67
2022/08/25 04:37:21;;;;;;;4.73;4.23;;;21.90;87.80;;;23.11;53.75;100669.13;4933208;29;20724;-67
2022/08/25 04:39:47;;;;;;;5.07;4.57;;;21.90;88.20;;;23.06;53.90;100667.03;4936024;29;21220;-67
2022/08/25 04:42:15;;;;;;;6.50;4.73;;;21.90;88.20;;;22.95;54.06;100672.03;4988733;23;20739;-70
2022/08/25 04:44:42;;;;;;;6.20;4.10;;;21.80;88.30;;;22.94;53.98;100665.88;5046063;28;20639;-70
2022/08/25 04:47:09;;;;;;;4.33;3.97;;;21.80;88.30;;;22.86;54.35;100662.53;5069000;28;20669;-70
2022/08/25 04:49:36;;;;;;;5.30;4.27;;;21.80;88.50;;;22.95;53.87;100658.72;5062953;28;20729;-70
2022/08/25 04:52:03;;;;;;;4.40;4.10;;;21.80;88.80;;;23.05;53.98;100657.41;5049206;28;20634;-70
2022/08/25 04:54:39;;;;;;;4.23;3.83;;;21.80;89.00;;;23.15;53.74;100646.41;5049335;28;20727;-70
2022/08/25 04:57:05;;;;;;;4.73;4.07;;;21.90;88.90;;;23.15;53.63;100649.09;5049302;28;20611;-70
2022/08/25 04:59:33;;;;;;;7.30;4.10;;;21.90;89.10;;;23.30;53.44;100655.16;5043375;28;20646;-69
2022/08/25 05:02:01;;;;;;;4.07;3.77;;;22.00;89.00;;;23.44;53.04;100648.97;5061592;28;20663;-71
2022/08/25 05:04:32;;;;;;;4.70;4.30;;;22.10;88.50;;;23.58;52.42;100650.72;5048307;28;20711;-70
2022/08/25 05:07:00;;;;;;;4.10;3.80;;;22.30;87.90;;;23.82;52.05;100650.28;5049337;28;20705;-70
2022/08/25 05:09:27;;;;;;;4.67;4.27;;;22.50;87.20;;;24.04;51.43;100650.19;5048368;28;21163;-70
2022/08/25 05:11:54;;;;;;;5.87;4.40;;;22.70;86.40;;;24.33;51.04;100653.44;5049030;28;20651;-72
2022/08/25 05:14:22;;;;;;;6.80;4.37;;;23.00;86.20;;;24.52;50.03;100646.53;5044828;28;20634;-70
2022/08/25 05:16:54;;;;;;;7.00;4.37;;;23.20;84.60;;;24.84;49.59;100655.69;5053151;28;20650;-71
2022/08/25 05:19:22;;;;;;;8.83;4.00;;;23.50;83.70;;;25.14;48.49;100651.63;5053259;28;20631;-70
2022/08/25 05:21:49;;;;;;;5.80;4.83;;;23.80;82.60;;;25.30;48.68;100651.22;5049218;28;20620;-70
2022/08/25 05:24:17;;;;;;;6.27;4.10;;;24.00;81.70;;;25.51;47.70;100648.41;5049015;28;20668;-70
2022/08/25 05:26:44;;;;;;;4.50;4.20;;;24.20;81.00;;;25.73;47.75;100644.47;5052861;28;20652;-70
2022/08/25 05:29:11;;;;;;;7.23;4.83;;;24.40;80.30;;;25.91;46.93;100641.97;5043514;28;21056;-70
2022/08/25 05:31:38;;;;;;;5.90;4.53;;;24.60;79.20;;;26.17;46.66;100642.94;5063211;28;20675;-70
2022/08/25 05:34:11;;;;;;;5.87;4.50;;;24.80;78.60;;;26.57;45.70;100647.91;5052861;28;21046;-71
2022/08/25 05:36:41;;;;;;;6.63;4.43;;;25.10;77.80;;;27.10;44.20;100643.09;5039171;28;20735;-70
2022/08/25 05:39:09;;;;;;;6.07;4.37;;;25.50;76.50;;;27.54;43.30;100652.84;5045550;28;20660;-72
2022/08/25 05:41:37;;;;;;;5.50;4.20;;;25.90;75.10;;;27.93;42.33;100651.63;5050327;28;20625;-71
2022/08/25 05:44:04;;;;;;;4.67;4.20;;;26.20;74.20;;;28.54;41.19;100649.69;5044823;28;20743;-68
2022/08/25 05:46:31;;;;;;;4.43;4.00;;;26.60;73.10;;;29.13;40.22;100657.72;5059844;28;21058;-71
2022/08/25 05:48:58;;;;;;;8.40;4.70;;;27.00;71.90;;;29.61;38.37;100659.47;5059699;28;20650;-70
2022/08/25 05:51:26;;;;;;;4.67;4.20;;;27.40;70.40;;;30.38;36.96;100663.63;5053787;28;20639;-70
2022/08/25 05:53:53;;;;;;;7.37;4.50;;;27.80;69.20;;;31.00;36.05;100656.50;5051850;28;21012;-70
2022/08/25 05:56:20;;;;;;;13.23;4.27;;;28.20;67.90;;;31.55;34.51;100657.44;5043370;28;20716;-70
2022/08/25 05:58:47;;;;;;;7.40;4.40;;;28.50;66.60;;;32.02;33.61;100647.88;5043378;28;20673;-72
2022/08/25 06:04:12;;;;;;;7.47;4.03;;;29.10;65.40;;;32.81;32.41;100640.16;5042405;28;21026;-71
2022/08/25 06:06:40;;;;;;;6.80;4.73;;;29.50;64.20;;;33.09;31.71;100642.63;5038478;28;20692;-72
2022/08/25 06:09:09;;;;;;;11.03;4.50;;;29.70;63.40;;;33.24;32.30;100640.03;5038031;28;20640;-71
2022/08/25 06:11:38;;;;;;;6.80;4.43;;;29.90;63.00;;;33.52;30.86;100638.94;5046148;28;20631;-70
2022/08/25 06:14:08;;;;;;;8.97;5.00;;;30.40;62.00;;;33.77;30.79;100639.06;5052177;28;20619;-70
2022/08/25 06:16:37;;;;;;;6.83;4.50;;;30.70;61.60;;;34.58;29.94;100642.16;5070045;28;21041;-71
2022/08/25 06:19:06;;;;;;;11.90;5.00;;;31.20;60.50;;;35.58;28.77;100641.41;5071026;28;20623;-71
2022/08/25 06:21:34;;;;;;;8.47;4.70;;;31.80;60.00;;;36.47;28.04;100649.56;5052484;28;20893;-70
2022/08/25 06:24:01;;;;;;;39.43;5.13;;;32.50;58.70;;;36.87;27.57;100649.28;5052568;28;20674;-69
2022/08/25 06:26:28;;;;;;;5.63;4.47;;;33.00;58.00;;;37.57;26.43;100658.00;5051285;28;20931;-69
2022/08/25 06:28:55;;;;;;;9.20;4.67;;;33.50;57.40;;;38.33;25.81;100650.63;5062746;28;20628;-69
2022/08/25 06:31:23;;;;;;;6.37;4.50;;;34.00;56.70;;;38.85;25.21;100643.34;5066693;28;20627;-70
2022/08/25 06:33:51;;;;;;;7.87;4.60;;;34.50;55.80;;;39.53;24.35;100653.34;5072957;28;20638;-70
2022/08/25 06:36:18;;;;;;;6.07;4.30;;;35.00;55.10;;;39.84;24.49;100647.34;5053145;28;20658;-66
2022/08/25 06:38:46;;;;;;;5.23;4.50;;;35.30;54.50;;;41.33;23.20;100641.50;5053137;28;20623;-70
2022/08/25 06:41:15;;;;;;;4.70;4.40;;;36.10;53.70;;;42.59;21.84;100645.31;5041746;28;20629;-69
2022/08/25 06:43:42;;;;;;;11.07;4.50;;;37.00;52.70;;;43.52;20.93;100647.13;5045253;28;20630;-72
2022/08/25 06:46:20;;;;;;;5.53;5.03;;;37.80;51.60;;;44.48;19.84;100646.34;5045287;28;20636;-69
2022/08/25 06:48:48;;;;;;;4.63;4.33;;;38.60;50.60;;;45.15;19.21;100640.56;5048286;28;20621;-70
2022/08/25 06:51:18;;;;;;;7.07;4.80;;;39.10;49.80;;;45.61;19.22;100642.16;5052563;28;20635;-70
2022/08/25 06:53:47;;;;;;;4.93;4.63;;;39.70;49.10;;;45.16;19.50;100640.19;5031833;28;20988;-70
2022/08/25 06:56:20;;;;;;;5.90;5.40;;;39.90;48.40;;;46.22;18.58;100638.22;5032163;28;20640;-71
2022/08/25 06:58:49;;;;;;;6.90;4.97;;;40.50;48.50;;;46.63;18.24;100637.91;5030818;28;20632;-70
2022/08/25 07:01:22;;;;;;;4.87;4.47;;;40.80;47.20;;;47.04;17.53;100639.47;5046678;28;21195;-69
2022/08/25 07:03:56;;;;;;;5.90;5.10;;;41.20;46.70;;;47.06;17.63;100641.88;5034926;28;20640;-69
2022/08/25 07:06:25;;;;;;;6.40;5.80;;;41.30;46.50;;;47.63;17.15;100641.38;5029950;28;20776;-69
2022/08/25 07:08:53;;;;;;;6.60;5.80;;;41.60;46.30;;;46.86;17.57;100629.88;5031506;28;20620;-69
2022/08/25 07:11:20;;;;;;;5.83;4.90;;;41.30;46.10;;;47.44;17.11;100636.59;5030506;28;20624;-69
2022/08/25 07:13:48;;;;;;;6.43;6.03;;;41.50;46.20;;;47.77;17.17;100625.19;5031443;28;20704;-68
2022/08/25 07:16:17;;;;;;;5.83;5.43;;;41.80;45.90;;;47.61;17.36;100627.13;5045750;28;21267;-70
2022/08/25 07:18:45;;;;;;;5.60;4.97;;;41.70;46.00;;;47.62;17.84;100625.97;5054300;28;20623;-69
2022/08/25 07:21:13;;;;;;;5.37;5.07;;;41.70;45.90;;;47.38;17.85;100624.22;5061194;28;20631;-68
2022/08/25 07:23:41;;;;;;;5.27;4.87;;;41.70;45.80;;;47.22;17.51;100618.63;5069954;28;20659;-69
2022/08/25 07:26:23;;;;;;;5.50;4.80;;;41.70;45.70;;;46.95;18.30;100624.19;5056083;28;20632;-69
2022/08/25 07:29:11;;;;;;;4.90;4.40;;;41.50;45.80;;;46.55;18.19;100616.78;5036497;28;21058;-69
2022/08/25 07:31:39;;;;;;;4.73;4.43;;;41.30;45.90;;;46.15;19.04;100610.44;5055884;28;20723;-68
2022/08/25 07:36:56;;;;;;;4.57;4.10;;;41.10;46.10;;;44.19;20.09;100610.63;5038183;28;20735;-68
2022/08/25 07:39:24;;;;;;;4.90;4.60;;;39.80;46.70;;;43.59;21.03;100608.97;5045025;28;20642;-68
2022/08/25 07:41:52;;;;;;;6.20;5.30;;;39.50;47.20;;;44.06;20.55;100607.00;5063517;28;20627;-68
2022/08/25 07:44:20;;;;;;;7.23;4.90;;;39.60;47.00;;;44.46;20.32;100613.66;5069497;28;20615;-68
2022/08/25 07:46:49;;;;;;;5.23;4.70;;;39.70;47.00;;;44.82;19.93;100604.78;5049966;28;20674;-68
2022/08/25 07:49:18;;;;;;;4.87;4.47;;;40.00;47.00;;;44.99;19.84;100612.84;5051432;28;20644;-69
2022/08/25 07:51:53;;;;;;;4.57;4.27;;;40.10;46.60;;;45.54;19.51;100606.06;5052810;28;20631;-69
2022/08/25 07:54:32;;;;;;;4.97;4.50;;;40.70;46.40;;;45.89;19.40;100602.53;5054893;28;20639;-69
2022/08/25 07:57:05;;;;;;;4.63;4.33;;;40.90;46.00;;;45.98;19.39;100608.72;5042132;28;20635;-69
2022/08/25 07:59:32;;;;;;;5.00;4.60;;;41.10;45.70;;;46.33;18.66;100609.03;5061012;28;20616;-69
2022/08/25 08:02:11;;;;;;;6.10;4.93;;;41.20;45.70;;;46.27;19.21;100615.09;5060896;28;21144;-70
2022/08/25 08:04:50;;;;;;;4.80;4.50;;;41.10;45.70;;;46.13;19.07;100617.44;5069827;28;20625;-70
2022/08/25 08:07:23;;;;;;;4.77;4.37;;;40.90;45.70;;;46.04;19.24;100618.38;5056591;28;20664;-69
2022/08/25 08:10:11;;;;;;;4.60;4.30;;;40.50;46.20;;;45.48;19.83;100613.75;5051659;28;20971;-69
2022/08/25 08:12:58;;;;;;;5.90;4.33;;;40.10;46.40;;;45.85;19.29;100614.59;5051129;28;20632;-70
2022/08/25 08:15:25;;;;;;;4.73;4.37;;;40.40;46.40;;;45.32;19.60;100619.13;5044206;28;20628;-69
2022/08/25 08:17:57;;;;;;;4.57;4.27;;;40.30;46.30;;;45.43;19.86;100608.47;5030656;28;20620;-68
2022/08/25 08:20:25;;;;;;;4.10;3.90;;;40.20;46.50;;;42.13;22.59;100607.50;5030019;28;20694;-68
2022/08/25 08:22:52;;;;;;;4.77;4.50;;;38.70;47.30;;;41.71;23.17;100604.34;5048748;28;20655;-69
2022/08/25 08:25:19;;;;;;;5.00;4.70;;;37.80;48.40;;;44.25;20.94;100620.28;5046842;28;22203;-67
2022/08/25 08:27:53;;;;;;;5.10;4.80;;;38.70;48.40;;;45.08;20.08;100610.81;5070338;28;21017;-68
2022/08/25 08:30:22;;;;;;;4.77;4.37;;;39.10;47.50;;;46.17;19.05;100615.59;5048142;28;20724;-68
2022/08/25 08:32:53;;;;;;;4.97;4.67;;;39.80;47.10;;;46.32;19.34;100610.19;5056528;28;21302;-68
2022/08/25 08:35:40;;;;;;;6.20;4.70;;;40.20;46.70;;;45.63;19.36;100615.06;5056477;28;20620;-68
2022/08/25 08:38:08;;;;;;;4.50;4.10;;;40.50;46.00;;;46.82;18.67;100617.94;5040080;28;20633;-69
2022/08/25 08:44:03;;;;;;;4.30;4.00;;;41.10;45.80;;;48.63;16.50;100621.97;5027939;28;20660;-69
2022/08/25 08:47:02;;;;;;;5.00;4.70;;;41.70;44.70;;;50.37;15.50;100621.72;5043970;28;20638;-69
2022/08/25 08:49:53;;;;;;;4.70;4.50;;;42.80;44.20;;;51.89;14.12;100621.25;5029390;28;20615;-69
2022/08/25 08:52:35;;;;;;;4.83;4.53;;;44.10;43.50;;;52.14;14.09;100624.16;5029839;28;20660;-69
2022/08/25 08:55:11;;;;;;;5.07;4.40;;;44.80;42.20;;;53.22;13.29;100617.38;5028932;28;20616;-69
2022/08/25 08:57:47;;;;;;;4.87;4.53;;;44.90;42.00;;;52.94;12.99;100617.34;5058250;28;20665;-69
2022/08/25 09:00:16;;;;;;;4.30;4.10;;;45.00;41.50;;;54.55;12.66;100611.88;5046498;28;21028;-69
2022/08/25 09:03:02;;;;;;;4.40;4.20;;;45.80;41.30;;;55.65;11.39;100606.28;5062418;28;20742;-68
2022/08/25 09:05:45;;;;;;;5.20;4.70;;;46.80;40.90;;;53.79;12.60;100604.19;5052494;28;20634;-69
2022/08/25 09:08:15;;;;;;;4.73;4.33;;;46.10;40.30;;;54.16;12.08;100609.28;5073070;28;20646;-69
2022/08/25 09:11:07;;;;;;;3.90;3.80;;;46.10;40.50;;;54.69;11.88;100603.44;5063202;28;20677;-69
2022/08/25 09:14:16;;;;;;;2.87;2.67;;;46.50;40.20;;;54.06;12.42;100613.66;5053047;28;20639;-68
2022/08/25 09:17:10;;;;;;;4.90;4.47;;;46.90;39.90;;;54.96;11.87;100609.22;5037480;28;20631;-68
2022/08/25 09:20:01;;;;;;;4.77;4.57;;;46.50;40.40;;;54.73;11.66;100601.44;5033139;28;20610;-70
2022/08/25 09:22:41;;;;;;;4.77;4.47;;;46.60;40.40;;;54.93;11.38;100599.66;5040388;28;20653;-69
2022/08/25 09:25:29;;;;;;;4.50;4.30;;;47.30;39.70;;;54.61;12.28;100593.50;5052938;28;20734;-69
2022/08/25 09:28:38;;;;;;;4.40;4.20;;;46.70;40.00;;;52.45;13.57;100589.31;5060675;28;20651;-69
2022/08/25 09:31:32;;;;;;;4.97;4.73;;;45.50;40.50;;;55.06;11.38;100581.22;5045917;28;20635;-69
2022/08/25 09:34:04;;;;;;;4.23;4.03;;;46.70;40.20;;;57.31;10.76;100585.16;5053620;28;20636;-69
2022/08/25 09:36:32;;;;;;;4.27;4.07;;;48.20;39.30;;;57.30;10.42;100589.19;5041577;28;21007;-69
2022/08/25 09:39:05;;;;;;;4.43;4.00;;;49.40;38.10;;;56.69;10.61;100569.75;5033633;28;20678;-69
2022/08/25 09:41:48;;;;;;;4.10;4.00;;;48.60;38.10;;;53.26;12.21;100561.59;5040334;28;21256;-69
2022/08/25 09:44:38;;;;;;;4.27;3.97;;;46.60;38.60;;;55.10;11.06;100559.59;5057946;28;21198;-69
2022/08/25 09:47:24;;;;;;;3.87;3.67;;;47.20;38.70;;;51.89;13.42;100554.47;5049365;28;21030;-69
2022/08/25 09:50:01;;;;;;;6.03;4.07;;;45.70;39.30;;;54.15;12.27;100543.47;5040469;28;20706;-69
2022/08/25 09:52:37;;;;;;;4.87;3.93;;;46.40;39.20;;;56.29;10.75;100562.34;5053616;28;20663;-70
2022/08/25 09:55:07;;;;;;;4.40;4.10;;;47.90;38.50;;;55.62;10.62;100542.72;5058703;28;20949;-70
2022/08/25 09:57:43;;;;;;;3.97;3.60;;;48.00;38.00;;;56.99;10.22;100542.84;5063147;28;20637;-69
2022/08/25 10:00:17;;;;;;;4.70;4.30;;;48.70;37.90;;;57.52;9.61;100543.50;5059826;28;20637;-67
2022/08/25 10:03:05;;;;;;;4.23;4.03;;;49.20;37.40;;;57.38;9.99;100542.97;5072822;28;20665;-70
2022/08/25 10:05:44;;;;;;;3.43;3.33;;;49.30;37.20;;;53.82;11.40;100536.41;5066850;28;20201;-69
2022/08/25 10:08:25;;;;;;;4.80;4.50;;;47.90;37.30;;;55.99;10.59;100535.13;5065647;28;20665;-68
2022/08/25 10:10:56;;;;;;;4.30;4.10;;;47.90;37.90;;;56.49;9.69;100532.41;5029994;28;20604;-69
2022/08/25 10:13:34;;;;;;;3.80;3.70;;;48.30;37.20;;;55.26;10.98;100523.50;5031910;28;21134;-67
2022/08/25 10:16:30;;;;;;;3.43;3.33;;;47.90;37.30;;;54.04;12.07;100509.97;5043259;28;20626;-67
2022/08/25 10:19:11;;;;;;;4.20;4.10;;;46.90;37.90;;;54.38;11.68;100514.97;5049832;28;21254;-69
2022/08/25 10:21:41;;;;;;;4.13;3.93;;;47.30;37.90;;;55.56;11.22;100517.22;5051263;28;20633;-69
2022/08/25 10:24:11;;;;;;;5.47;4.63;;;47.60;38.00;;;50.00;14.45;100511.81;5048062;28;21064;-69
2022/08/25 10:26:57;;;;;;;3.97;3.77;;;44.50;39.40;;;50.12;14.61;100495.72;5061633;28;21186;-69
2022/08/25 10:29:49;;;;;;;4.10;3.90;;;44.40;39.70;;;47.04;16.47;100486.75;5060137;28;20641;-69
2022/08/25 10:32:50;;;;;;;5.40;4.77;;;43.00;40.60;;;44.12;19.26;100473.66;5057147;28;20665;-69
2022/08/25 10:35:41;;;;;;;4.17;3.97;;;41.10;42.10;;;42.38;20.84;100486.84;5031938;28;20635;-71
2022/08/25 10:38:32;;;;;;;4.13;3.93;;;39.70;43.20;;;41.23;22.25;100477.53;5031626;28;20613;-69
2022/08/25 10:41:24;;;;;;;4.40;4.10;;;38.90;43.90;;;40.30;23.27;100478.53;5031459;28;20621;-69
2022/08/25 10:44:05;;;;;;;4.27;4.00;;;38.30;44.50;;;39.61;24.12;100460.75;5034186;28;20687;-70
2022/08/25 10:47:39;;;;;;;4.87;4.57;;;37.60;45.00;;;39.23;24.98;100453.88;5036972;28;20728;-69